createdAt,value
2022-10-14T00:01:19.263Z,11.07
2022-10-14T00:03:47.716Z,9.77
2022-10-14T00:06:20.732Z,10.93
2022-10-14T00:08:48.366Z,10.10
2022-10-14T00:11:18.732Z,10.40
2022-10-14T00:13:46.593Z,11.40
2022-10-14T00:16:21.595Z,10.68
2022-10-14T00:18:49.484Z,10.90
2022-10-14T00:21:17.787Z,8.82
2022-10-14T00:23:46.424Z,8.85
2022-10-14T00:26:18.398Z,9.45
2022-10-14T00:28:46.285Z,8.93
2022-10-14T00:31:14.577Z,9.45
2022-10-14T00:33:43.620Z,7.97
2022-10-14T00:36:14.123Z,8.38
2022-10-14T00:38:42.192Z,8.30
2022-10-14T00:41:19.079Z,8.10
2022-10-14T00:44:06.958Z,8.93
2022-10-14T00:46:39.706Z,8.52
2022-10-14T00:49:12.026Z,9.45
2022-10-14T00:51:42.725Z,7.85
2022-10-14T00:54:11.364Z,8.80
2022-10-14T00:56:39.193Z,8.52
2022-10-14T00:59:11.747Z,7.95
2022-10-14T01:01:39.200Z,8.45
2022-10-14T01:04:06.957Z,8.35
2022-10-14T01:07:20.937Z,8.60
2022-10-14T01:10:09.565Z,7.80
2022-10-14T01:13:09.392Z,8.65
2022-10-14T01:15:39.246Z,8.77
2022-10-14T01:18:21.477Z,8.75
2022-10-14T01:21:03.274Z,8.65
2022-10-14T01:23:53.648Z,9.70
2022-10-14T01:27:02.659Z,9.13
2022-10-14T01:29:48.696Z,10.02
2022-10-14T01:32:29.699Z,10.15
2022-10-14T01:35:28.238Z,9.77
2022-10-14T01:38:01.209Z,8.90
2022-10-14T01:40:47.746Z,8.63
2022-10-14T01:43:19.326Z,8.70
2022-10-14T01:45:49.630Z,8.02
2022-10-14T01:48:21.477Z,7.68
2022-10-14T01:50:52.288Z,8.35
2022-10-14T01:53:33.834Z,8.90
2022-10-14T01:56:03.994Z,7.38
2022-10-14T01:58:34.155Z,7.93
2022-10-14T02:01:08.097Z,8.77
2022-10-14T02:03:44.628Z,8.73
2022-10-14T02:06:24.931Z,9.52
2022-10-14T02:09:19.893Z,8.65
2022-10-14T02:12:17.762Z,8.15
2022-10-14T02:15:24.619Z,8.98
2022-10-14T02:18:03.561Z,7.57
2022-10-14T02:20:48.084Z,8.52
2022-10-14T02:23:44.914Z,7.78
2022-10-14T02:26:13.749Z,8.82
2022-10-14T02:28:43.618Z,8.48
2022-10-14T02:31:18.713Z,8.05
2022-10-14T02:33:52.477Z,8.32
2022-10-14T02:36:24.122Z,8.15
2022-10-14T02:38:54.663Z,8.73
2022-10-14T02:41:25.711Z,8.02
2022-10-14T02:46:22.386Z,7.45
2022-10-14T02:48:50.093Z,9.98
2022-10-14T02:51:17.572Z,8.80
2022-10-14T02:53:45.125Z,10.80
2022-10-14T02:56:17.352Z,10.18
2022-10-14T02:58:44.871Z,9.52
2022-10-14T03:01:12.284Z,9.45
2022-10-14T03:03:39.809Z,9.45
2022-10-14T03:06:07.737Z,10.05
2022-10-14T03:08:35.658Z,10.60
2022-10-14T03:11:05.708Z,10.20
2022-10-14T03:13:33.156Z,11.18
2022-10-14T03:16:00.585Z,10.73
2022-10-14T03:18:28.346Z,10.52
2022-10-14T03:21:02.223Z,10.43
2022-10-14T03:23:36.377Z,9.65
2022-10-14T03:26:03.857Z,10.85
2022-10-14T03:28:39.576Z,10.10
2022-10-14T03:31:27.451Z,10.93
2022-10-14T03:34:21.308Z,12.85
2022-10-14T03:36:53.321Z,10.70
2022-10-14T03:39:21.263Z,10.27
2022-10-14T03:41:50.939Z,11.90
2022-10-14T03:44:23.115Z,11.43
2022-10-14T03:47:10.500Z,13.60
2022-10-14T03:49:38.595Z,13.88
2022-10-14T03:52:14.460Z,13.70
2022-10-14T03:54:44.230Z,13.98
2022-10-14T03:57:15.532Z,14.65
2022-10-14T03:59:50.140Z,14.60
2022-10-14T04:02:19.120Z,14.23
2022-10-14T04:04:46.680Z,17.17
2022-10-14T04:07:16.706Z,16.27
2022-10-14T04:09:51.264Z,15.43
2022-10-14T04:12:19.817Z,16.95
2022-10-14T04:15:13.909Z,15.98
2022-10-14T04:18:01.106Z,16.35
2022-10-14T04:20:29.857Z,17.40
2022-10-14T04:22:59.953Z,16.65
2022-10-14T04:25:28.443Z,15.57
2022-10-14T04:28:02.836Z,15.75
2022-10-14T04:30:43.056Z,17.38
2022-10-14T04:33:16.755Z,16.83
2022-10-14T04:35:44.288Z,18.80
2022-10-14T04:38:20.322Z,18.20
2022-10-14T04:40:55.450Z,16.25
2022-10-14T04:43:22.981Z,17.02
2022-10-14T04:45:50.916Z,17.42
2022-10-14T04:48:24.972Z,16.88
2022-10-14T04:50:54.337Z,15.85
2022-10-14T04:53:48.101Z,15.20
2022-10-14T04:56:29.202Z,15.20
2022-10-14T04:59:01.740Z,13.90
2022-10-14T05:01:48.732Z,14.27
2022-10-14T05:04:16.957Z,14.90
2022-10-14T05:06:47.160Z,16.05
2022-10-14T05:09:16.935Z,14.20
2022-10-14T05:11:44.557Z,14.25
2022-10-14T05:14:14.474Z,14.35
2022-10-14T05:16:44.478Z,14.60
2022-10-14T05:19:12.009Z,12.95
2022-10-14T05:21:47.707Z,13.02
2022-10-14T05:24:20.872Z,13.95
2022-10-14T05:26:49.236Z,12.25
2022-10-14T05:29:16.822Z,13.68
2022-10-14T05:31:44.741Z,12.25
2022-10-14T05:34:25.507Z,13.63
2022-10-14T05:36:52.916Z,12.02
2022-10-14T05:39:21.981Z,11.73
2022-10-14T05:41:49.457Z,12.73
2022-10-14T05:44:21.264Z,11.60
2022-10-14T05:46:50.851Z,11.75
2022-10-14T05:49:18.282Z,11.05
2022-10-14T05:51:46.259Z,11.13
2022-10-14T05:54:20.407Z,10.75
2022-10-14T05:56:50.531Z,11.70
2022-10-14T05:59:17.941Z,11.65
2022-10-14T06:01:45.580Z,11.15
2022-10-14T06:04:20.598Z,9.93
2022-10-14T06:06:48.383Z,10.35
2022-10-14T06:09:16.957Z,11.10
2022-10-14T06:11:44.773Z,9.88
2022-10-14T06:14:12.909Z,10.82
2022-10-14T06:16:41.511Z,11.10
2022-10-14T06:19:09.067Z,9.70
2022-10-14T06:21:36.523Z,9.50
2022-10-14T06:24:04.869Z,10.48
2022-10-14T06:26:32.560Z,9.35
2022-10-14T06:29:00.136Z,9.00
2022-10-14T06:31:32.139Z,9.40
2022-10-14T06:34:00.690Z,9.23
2022-10-14T06:36:28.159Z,9.40
2022-10-14T06:38:55.596Z,9.07
2022-10-14T06:41:23.571Z,8.18
2022-10-14T06:43:50.959Z,8.40
2022-10-14T06:46:18.429Z,8.95
2022-10-14T06:48:50.009Z,8.90
2022-10-14T06:51:17.994Z,9.45
2022-10-14T06:53:45.348Z,7.75
2022-10-14T06:56:12.907Z,8.35
2022-10-14T06:58:40.272Z,7.90
2022-10-14T07:01:08.587Z,8.95
2022-10-14T07:03:38.806Z,8.63
2022-10-14T07:06:07.791Z,8.33
2022-10-14T07:08:35.593Z,7.80
2022-10-14T07:11:03.412Z,8.60
2022-10-14T07:13:30.803Z,8.60
2022-10-14T07:15:58.280Z,8.15
2022-10-14T07:18:27.036Z,7.65
2022-10-14T07:20:54.534Z,9.50
2022-10-14T07:23:22.318Z,8.05
2022-10-14T07:25:52.806Z,9.35
2022-10-14T07:28:20.256Z,8.50
2022-10-14T07:31:06.779Z,7.85
2022-10-14T07:33:39.382Z,8.48
2022-10-14T07:36:10.383Z,8.82
2022-10-14T07:41:16.922Z,8.80
2022-10-14T07:43:49.996Z,8.52
2022-10-14T07:46:32.012Z,9.55
2022-10-14T07:49:05.014Z,8.90
2022-10-14T07:51:38.590Z,9.50
2022-10-14T07:54:09.862Z,8.77
2022-10-14T07:56:42.443Z,8.65
2022-10-14T07:59:10.895Z,9.00
2022-10-14T08:01:38.487Z,8.10
2022-10-14T08:04:06.542Z,8.82
2022-10-14T08:06:33.913Z,9.35
2022-10-14T08:09:01.378Z,8.77
2022-10-14T08:11:29.576Z,8.20
2022-10-14T08:13:58.910Z,7.45
2022-10-14T08:16:33.723Z,8.77
2022-10-14T08:19:07.575Z,8.30
2022-10-14T08:21:37.262Z,7.88
2022-10-14T08:24:05.135Z,7.78
2022-10-14T08:26:40.799Z,5.70
2022-10-14T08:29:11.133Z,6.40
2022-10-14T08:31:38.647Z,5.20
2022-10-14T08:34:06.260Z,4.85
2022-10-14T08:36:33.666Z,4.28
2022-10-14T08:39:01.073Z,4.32
2022-10-14T08:41:55.892Z,3.72
2022-10-14T08:44:26.871Z,4.35
2022-10-14T08:47:01.397Z,4.95
2022-10-14T08:49:44.583Z,3.72
2022-10-14T08:52:20.829Z,3.85
2022-10-14T08:54:52.655Z,4.38
2022-10-14T08:57:27.875Z,4.10
2022-10-14T08:59:55.578Z,4.85
2022-10-14T09:02:50.341Z,3.22
2022-10-14T09:05:22.146Z,4.07
2022-10-14T09:07:52.546Z,4.18
2022-10-14T09:10:30.484Z,3.47
2022-10-14T09:13:07.195Z,3.55
2022-10-14T09:15:38.660Z,3.83
2022-10-14T09:18:29.632Z,3.90
2022-10-14T09:20:58.994Z,2.90
2022-10-14T09:23:28.312Z,2.65
2022-10-14T09:25:58.604Z,2.78
2022-10-14T09:28:38.278Z,3.20
2022-10-14T09:31:10.534Z,2.70
2022-10-14T09:33:42.265Z,2.88
2022-10-14T09:36:19.347Z,2.55
2022-10-14T09:38:52.512Z,2.97
2022-10-14T09:41:29.137Z,2.40
2022-10-14T09:44:18.526Z,2.53
2022-10-14T09:47:12.239Z,2.50
2022-10-14T09:49:46.875Z,2.50
2022-10-14T09:52:25.894Z,2.33
2022-10-14T09:54:55.838Z,2.20
2022-10-14T09:57:25.619Z,2.88
2022-10-14T10:00:06.457Z,1.98
2022-10-14T10:02:42.110Z,2.00
2022-10-14T10:05:23.569Z,2.25
2022-10-14T10:08:17.262Z,2.45
2022-10-14T10:11:37.522Z,2.80
2022-10-14T10:14:27.233Z,2.53
2022-10-14T10:17:10.116Z,1.98
2022-10-14T10:19:43.239Z,2.88
2022-10-14T10:24:53.058Z,1.95
2022-10-14T10:27:25.627Z,2.58
2022-10-14T10:29:56.300Z,2.35
2022-10-14T10:32:56.370Z,2.55
2022-10-14T10:35:43.471Z,2.97
2022-10-14T10:38:31.013Z,2.70
2022-10-14T10:41:16.372Z,2.70
2022-10-14T10:44:06.264Z,2.85
2022-10-14T10:47:07.530Z,2.65
2022-10-14T10:50:08.317Z,2.42
2022-10-14T10:52:51.720Z,2.78
2022-10-14T10:55:31.194Z,2.70
2022-10-14T10:58:03.739Z,2.58
2022-10-14T11:01:07.322Z,3.10
2022-10-14T11:06:45.108Z,3.45
2022-10-14T11:09:57.019Z,3.10
2022-10-14T11:12:37.910Z,3.28
2022-10-14T11:15:30.587Z,3.30
2022-10-14T11:18:09.209Z,3.50
2022-10-14T11:21:00.920Z,3.35
2022-10-14T11:23:31.527Z,3.42
2022-10-14T11:26:27.224Z,3.55
2022-10-14T11:29:32.200Z,4.60
2022-10-14T11:32:22.050Z,3.78
2022-10-14T11:35:17.080Z,3.40
2022-10-14T11:38:15.847Z,3.70
2022-10-14T11:40:57.132Z,3.25
2022-10-14T11:43:36.964Z,4.00
2022-10-14T11:46:16.241Z,3.70
2022-10-14T11:49:01.285Z,4.55
2022-10-14T11:51:41.088Z,4.00
2022-10-14T11:54:20.247Z,4.97
2022-10-14T11:57:18.660Z,5.60
2022-10-14T11:59:52.160Z,5.53
2022-10-14T12:02:28.186Z,6.15
2022-10-14T12:05:15.253Z,6.95
2022-10-14T12:08:05.259Z,5.85
2022-10-14T12:10:42.335Z,6.05
2022-10-14T12:13:17.861Z,6.32
2022-10-14T12:15:50.231Z,7.10
2022-10-14T12:18:19.694Z,5.65
2022-10-14T12:21:00.913Z,3.87
2022-10-14T12:23:43.702Z,3.30
2022-10-14T12:26:24.049Z,3.22
2022-10-14T12:28:54.111Z,2.85
2022-10-14T12:31:40.369Z,2.40
2022-10-14T12:34:13.742Z,3.10
2022-10-14T12:36:51.477Z,2.95
2022-10-14T12:39:18.808Z,3.30
2022-10-14T12:42:11.105Z,2.78
2022-10-14T12:44:51.945Z,2.83
2022-10-14T12:47:35.265Z,2.10
2022-10-14T12:50:22.199Z,2.40
2022-10-14T12:52:58.618Z,2.00
2022-10-14T12:55:32.061Z,1.90
2022-10-14T12:58:02.143Z,1.60
2022-10-14T13:00:40.950Z,1.93
2022-10-14T13:03:25.134Z,1.83
2022-10-14T13:05:53.172Z,1.60
2022-10-14T13:08:20.607Z,1.77
2022-10-14T13:10:54.072Z,1.95
2022-10-14T13:13:42.490Z,1.70
2022-10-14T13:16:31.167Z,1.90
2022-10-14T13:19:01.998Z,1.58
2022-10-14T13:21:37.109Z,2.22
2022-10-14T13:24:36.863Z,2.00
2022-10-14T13:27:06.999Z,2.22
2022-10-14T13:30:04.379Z,2.10
2022-10-14T13:32:50.383Z,1.73
2022-10-14T13:35:48.948Z,1.90
2022-10-14T13:38:19.043Z,2.03
2022-10-14T13:40:51.855Z,1.80
2022-10-14T13:43:29.129Z,2.45
2022-10-14T13:46:16.388Z,2.13
2022-10-14T13:48:47.162Z,2.38
2022-10-14T13:51:24.700Z,2.00
2022-10-14T13:54:25.139Z,1.67
2022-10-14T13:57:47.926Z,2.30
2022-10-14T14:00:42.637Z,1.98
2022-10-14T14:03:23.498Z,2.22
2022-10-14T14:05:52.514Z,2.20
2022-10-14T14:08:41.851Z,2.60
2022-10-14T14:11:18.080Z,2.22
2022-10-14T14:14:01.736Z,2.42
2022-10-14T14:16:35.509Z,3.05
2022-10-14T14:19:09.549Z,2.50
2022-10-14T14:21:38.448Z,2.30
2022-10-14T14:24:16.603Z,2.10
2022-10-14T14:26:49.101Z,3.35
2022-10-14T14:29:22.350Z,1.63
2022-10-14T14:32:07.822Z,2.28
2022-10-14T14:34:38.583Z,1.80
2022-10-14T14:37:43.512Z,1.90
2022-10-14T14:40:14.852Z,1.90
2022-10-14T14:42:43.749Z,1.70
2022-10-14T14:45:16.843Z,1.65
2022-10-14T14:47:44.866Z,1.95
2022-10-14T14:50:32.101Z,2.00
2022-10-14T14:53:06.716Z,1.60
2022-10-14T14:55:36.697Z,1.90
2022-10-14T14:58:12.262Z,1.40
2022-10-14T15:00:45.197Z,1.67
2022-10-14T15:03:13.431Z,2.42
2022-10-14T15:05:40.895Z,2.05
2022-10-14T15:08:22.441Z,1.60
2022-10-14T15:10:53.214Z,1.77
2022-10-14T15:13:30.703Z,1.95
2022-10-14T15:15:58.726Z,2.30
2022-10-14T15:18:28.535Z,1.98
2022-10-14T15:21:12.171Z,2.13
2022-10-14T15:23:48.888Z,2.60
2022-10-14T15:26:43.140Z,1.98
2022-10-14T15:29:15.263Z,2.10
2022-10-14T15:32:13.015Z,1.83
2022-10-14T15:34:41.575Z,2.20
2022-10-14T15:37:13.510Z,2.30
2022-10-14T15:39:40.963Z,2.20
2022-10-14T15:42:12.125Z,2.45
2022-10-14T15:44:39.585Z,2.38
2022-10-14T15:47:21.006Z,2.30
2022-10-14T15:49:48.791Z,2.83
2022-10-14T15:52:19.352Z,3.47
2022-10-14T15:54:50.642Z,5.30
2022-10-14T15:57:18.052Z,4.45
2022-10-14T16:02:30.868Z,5.43
2022-10-14T16:07:45.794Z,3.83
2022-10-14T16:10:16.743Z,3.28
2022-10-14T16:15:20.950Z,3.08
2022-10-14T16:17:51.885Z,2.47
2022-10-14T16:20:21.684Z,3.22
2022-10-14T16:22:49.256Z,3.38
2022-10-14T16:25:38.824Z,3.80
2022-10-14T16:28:10.022Z,3.40
2022-10-14T16:30:41.054Z,3.08
2022-10-14T16:35:43.276Z,3.53
2022-10-14T16:38:12.517Z,3.53
2022-10-14T16:40:39.975Z,3.75
2022-10-14T16:43:07.511Z,3.25
2022-10-14T16:45:35.022Z,3.33
2022-10-14T16:48:02.844Z,3.45
2022-10-14T16:50:30.217Z,3.40
2022-10-14T16:53:16.332Z,3.80
2022-10-14T16:55:43.802Z,3.50
2022-10-14T16:58:11.813Z,3.80
2022-10-14T17:00:39.630Z,3.65
2022-10-14T17:03:11.088Z,3.75
2022-10-14T17:05:38.549Z,3.63
2022-10-14T17:08:06.810Z,4.53
2022-10-14T17:10:34.273Z,3.95
2022-10-14T17:13:02.094Z,4.00
2022-10-14T17:15:31.434Z,4.18
2022-10-14T17:17:59.012Z,4.18
2022-10-14T17:20:27.538Z,3.53
2022-10-14T17:22:55.561Z,3.95
2022-10-14T17:25:22.994Z,3.83
2022-10-14T17:27:50.723Z,4.30
2022-10-14T17:30:18.523Z,4.85
2022-10-14T17:32:46.766Z,4.60
2022-10-14T17:35:15.329Z,4.47
2022-10-14T17:37:45.255Z,4.60
2022-10-14T17:40:13.102Z,4.30
2022-10-14T17:42:41.862Z,5.07
2022-10-14T17:45:09.904Z,4.43
2022-10-14T17:47:37.307Z,4.45
2022-10-14T17:50:06.990Z,4.97
2022-10-14T17:52:34.420Z,4.90
2022-10-14T17:55:02.102Z,5.00
2022-10-14T17:57:29.553Z,4.82
2022-10-14T17:59:58.952Z,6.45
2022-10-14T18:02:27.604Z,5.32
2022-10-14T18:04:55.068Z,4.60
2022-10-14T18:07:23.216Z,3.63
2022-10-14T18:09:50.954Z,3.50
2022-10-14T18:12:18.480Z,3.40
2022-10-14T18:14:46.018Z,3.78
2022-10-14T18:17:13.438Z,3.97
2022-10-14T18:19:41.389Z,4.85
2022-10-14T18:22:11.031Z,4.60
2022-10-14T18:24:39.383Z,5.13
2022-10-14T18:27:07.091Z,4.50
2022-10-14T18:29:34.596Z,4.80
2022-10-14T18:32:02.235Z,5.00
2022-10-14T18:34:29.885Z,4.82
2022-10-14T18:36:57.397Z,4.20
2022-10-14T18:39:25.171Z,5.10
2022-10-14T18:41:52.555Z,3.75
2022-10-14T18:44:20.050Z,3.83
2022-10-14T18:46:47.660Z,4.00
2022-10-14T18:49:15.691Z,3.92
2022-10-14T18:51:43.429Z,3.38
2022-10-14T18:54:19.652Z,2.40
2022-10-14T18:56:47.333Z,3.05
2022-10-14T18:59:20.536Z,2.95
2022-10-14T19:01:53.238Z,2.92
2022-10-14T19:04:24.051Z,3.33
2022-10-14T19:06:51.828Z,4.25
2022-10-14T19:09:21.480Z,4.10
2022-10-14T19:11:52.593Z,3.88
2022-10-14T19:14:20.854Z,3.90
2022-10-14T19:16:49.630Z,3.45
2022-10-14T19:19:19.789Z,3.35
2022-10-14T19:21:54.028Z,3.20
2022-10-14T19:24:21.612Z,3.33
2022-10-14T19:26:49.915Z,3.35
2022-10-14T19:29:17.810Z,3.60
2022-10-14T19:31:45.718Z,2.75
2022-10-14T19:34:15.454Z,3.75
2022-10-14T19:36:43.613Z,3.95
2022-10-14T19:39:13.807Z,4.57
2022-10-14T19:41:46.264Z,4.45
2022-10-14T19:44:15.490Z,5.40
2022-10-14T19:46:44.575Z,5.57
2022-10-14T19:49:13.808Z,5.68
2022-10-14T19:51:41.611Z,5.30
2022-10-14T19:54:11.863Z,4.70
2022-10-14T19:56:39.649Z,5.03
2022-10-14T19:59:07.470Z,5.70
2022-10-14T20:01:35.383Z,5.10
2022-10-14T20:04:03.111Z,5.57
2022-10-14T20:06:35.998Z,5.30
2022-10-14T20:09:05.054Z,5.45
2022-10-14T20:11:33.102Z,5.70
2022-10-14T20:14:00.574Z,5.53
2022-10-14T20:16:28.088Z,5.32
2022-10-14T20:18:56.091Z,4.55
2022-10-14T20:21:23.757Z,4.70
2022-10-14T20:23:51.190Z,5.70
2022-10-14T20:26:21.066Z,4.03
2022-10-14T20:28:49.872Z,3.88
2022-10-14T20:31:19.506Z,3.40
2022-10-14T20:33:47.017Z,3.13
2022-10-14T20:36:21.740Z,3.63
2022-10-14T20:38:50.370Z,3.10
2022-10-14T20:41:25.879Z,3.28
2022-10-14T20:43:54.590Z,3.08
2022-10-14T20:46:24.632Z,4.03
2022-10-14T20:48:56.952Z,3.13
2022-10-14T20:51:24.580Z,3.20
2022-10-14T20:54:01.625Z,3.03
2022-10-14T20:56:32.837Z,2.70
2022-10-14T20:59:02.646Z,3.25
2022-10-14T21:01:31.457Z,2.85
2022-10-14T21:04:03.878Z,3.08
2022-10-14T21:06:31.447Z,3.00
2022-10-14T21:08:59.204Z,3.42
2022-10-14T21:11:28.006Z,3.08
2022-10-14T21:13:58.114Z,3.15
2022-10-14T21:16:28.577Z,3.30
2022-10-14T21:18:58.611Z,3.30
2022-10-14T21:21:32.762Z,2.93
2022-10-14T21:24:00.150Z,2.90
2022-10-14T21:26:28.540Z,2.90
2022-10-14T21:28:56.036Z,2.95
2022-10-14T21:31:23.694Z,2.88
2022-10-14T21:34:04.132Z,3.50
2022-10-14T21:36:36.427Z,3.53
2022-10-14T21:39:15.333Z,5.72
2022-10-14T21:41:43.433Z,4.88
2022-10-14T21:44:17.211Z,5.40
2022-10-14T21:46:45.030Z,5.55
2022-10-14T21:49:13.284Z,5.18
2022-10-14T21:51:40.947Z,4.95
2022-10-14T21:54:10.885Z,4.60
2022-10-14T21:56:38.894Z,4.65
2022-10-14T21:59:06.781Z,5.22
2022-10-14T22:01:34.288Z,5.32
2022-10-14T22:04:04.587Z,6.00
2022-10-14T22:06:34.330Z,5.95
2022-10-14T22:09:05.272Z,6.68
2022-10-14T22:14:03.769Z,6.05
2022-10-14T22:16:31.531Z,5.32
2022-10-14T22:19:00.997Z,6.15
2022-10-14T22:21:30.653Z,6.43
2022-10-14T22:23:59.005Z,7.05
2022-10-14T22:26:28.351Z,7.15
2022-10-14T22:29:02.429Z,7.10
2022-10-14T22:31:32.946Z,6.43
2022-10-14T22:34:02.370Z,6.50
2022-10-14T22:36:30.750Z,5.63
2022-10-14T22:39:00.247Z,6.05
2022-10-14T22:41:33.898Z,6.18
2022-10-14T22:44:04.731Z,5.35
2022-10-14T22:46:34.405Z,6.22
2022-10-14T22:49:02.096Z,5.07
2022-10-14T22:51:33.181Z,5.75
2022-10-14T22:54:00.875Z,4.68
2022-10-14T22:56:29.920Z,5.53
2022-10-14T22:59:06.536Z,4.78
2022-10-14T23:01:34.620Z,5.60
2022-10-14T23:04:02.167Z,4.43
2022-10-14T23:06:30.499Z,6.03
2022-10-14T23:09:00.377Z,4.53
2022-10-14T23:11:29.681Z,3.67
2022-10-14T23:14:02.882Z,4.30
2022-10-14T23:16:34.147Z,4.40
2022-10-14T23:19:02.135Z,4.13
2022-10-14T23:21:34.551Z,4.93
2022-10-14T23:24:05.218Z,4.90
2022-10-14T23:26:37.059Z,5.50
2022-10-14T23:29:07.353Z,6.03
2022-10-14T23:31:36.375Z,5.57
2022-10-14T23:34:07.067Z,7.25
2022-10-14T23:36:34.593Z,6.65
2022-10-14T23:39:02.219Z,8.10
2022-10-14T23:41:29.652Z,7.10
2022-10-14T23:43:57.039Z,7.82
2022-10-14T23:46:24.780Z,7.00
2022-10-14T23:49:06.587Z,6.72
2022-10-14T23:51:35.707Z,6.07
2022-10-14T23:54:04.044Z,6.90
2022-10-14T23:56:32.224Z,7.38
2022-10-14T23:58:59.685Z,7.18
